Time;durP1;ratioP1;P1;durP2;ratioP2;P2;SDS_P1;SDS_P2;PMS_P1;PMS_P2;Temp;Humidity;BMP_temperature;BMP_pressure;BME280_temperature;BME280_humidity;BME280_pressure;Samples;Min_cycle;Max_cycle;Signal;HPM_P1;HPM_P2
2022/01/04 00:01:25;;;;;;;0.50;0.50;;;11.00;60.20;;;;;;5151194;27;34324;-77
2022/01/04 00:03:51;;;;;;;0.35;0.32;;;11.00;60.10;;;;;;5168652;27;35565;-77
2022/01/04 00:06:17;;;;;;;0.75;0.30;;;10.90;59.80;;;;;;5168563;27;34177;-77
2022/01/04 00:08:44;;;;;;;0.75;0.35;;;10.90;59.70;;;;;;5168965;27;34332;-77
2022/01/04 00:11:20;;;;;;;0.13;0.13;;;10.80;59.60;;;;;;5150802;27;34302;-77
2022/01/04 00:13:46;;;;;;;0.40;0.40;;;10.60;59.40;;;;;;5168546;27;36983;-77
2022/01/04 00:16:13;;;;;;;0.40;0.15;;;10.50;59.50;;;;;;5167952;27;34177;-78
2022/01/04 00:18:40;;;;;;;0.20;0.20;;;10.40;59.50;;;;;;5169088;27;34299;-77
2022/01/04 00:21:07;;;;;;;0.28;0.28;;;10.30;59.60;;;;;;5151714;27;34164;-78
2022/01/04 00:23:34;;;;;;;0.20;0.20;;;10.20;59.60;;;;;;5151136;27;36069;-77
2022/01/04 00:26:00;;;;;;;0.30;0.30;;;10.20;59.60;;;;;;5168279;27;34524;-77
2022/01/04 00:28:27;;;;;;;0.20;0.20;;;10.10;59.70;;;;;;5168471;27;34458;-77
2022/01/04 00:30:53;;;;;;;0.30;0.30;;;10.00;59.60;;;;;;5187401;27;34085;-77
2022/01/04 00:33:20;;;;;;;0.20;0.20;;;10.00;59.60;;;;;;5167954;27;35695;-77
2022/01/04 00:35:46;;;;;;;0.20;0.20;;;10.00;59.60;;;;;;5187197;27;34090;-77
2022/01/04 00:38:12;;;;;;;0.70;0.20;;;9.90;59.60;;;;;;5167668;27;34327;-77
2022/01/04 00:40:38;;;;;;;0.20;0.20;;;9.90;59.70;;;;;;5150837;27;34459;-77
2022/01/04 00:43:05;;;;;;;1.15;0.35;;;9.80;59.60;;;;;;5186480;27;34312;-77
2022/01/04 00:45:35;;;;;;;0.75;0.38;;;9.80;59.60;;;;;;5150362;27;34265;-77
2022/01/04 00:50:49;;;;;;;0.20;0.20;;;9.70;59.60;;;;;;5171125;27;34347;-77
2022/01/04 00:53:15;;;;;;;0.20;0.20;;;9.70;59.60;;;;;;5167643;27;36006;-77
2022/01/04 00:55:41;;;;;;;0.20;0.20;;;9.60;60.20;;;;;;5168047;27;34219;-77
2022/01/04 00:58:07;;;;;;;0.63;0.20;;;9.60;59.50;;;;;;5150443;27;34159;-77
2022/01/04 01:00:33;;;;;;;0.28;0.28;;;9.60;60.10;;;;;;5150759;27;34394;-77
2022/01/04 01:03:00;;;;;;;0.32;0.25;;;9.60;59.50;;;;;;5167610;27;36761;-77
2022/01/04 01:05:26;;;;;;;3.03;0.45;;;9.50;59.40;;;;;;5167327;27;34306;-77
2022/01/04 01:07:53;;;;;;;0.28;0.28;;;9.50;59.60;;;;;;5167631;27;34457;-77
2022/01/04 01:13:02;;;;;;;1.02;0.43;;;9.40;59.40;;;;;;5186063;27;34352;-77
2022/01/04 01:15:29;;;;;;;0.40;0.32;;;9.40;59.50;;;;;;5186526;27;34191;-77
2022/01/04 01:17:55;;;;;;;0.82;0.35;;;9.40;59.40;;;;;;5186750;27;34270;-77
2022/01/04 01:20:21;;;;;;;0.50;0.35;;;9.40;59.30;;;;;;5167063;27;34090;-77
2022/01/04 01:22:48;;;;;;;1.00;0.40;;;9.30;59.40;;;;;;5185656;27;34365;-77
2022/01/04 01:25:14;;;;;;;0.40;0.30;;;9.30;60.00;;;;;;5167455;27;34250;-78
2022/01/04 01:27:41;;;;;;;0.45;0.40;;;9.30;59.40;;;;;;5186161;27;34193;-77
2022/01/04 01:30:09;;;;;;;0.82;0.30;;;9.30;59.40;;;;;;5167681;27;34314;-78
2022/01/04 01:32:35;;;;;;;0.50;0.50;;;9.20;59.40;;;;;;5167317;27;35249;-78
2022/01/04 01:35:02;;;;;;;0.90;0.40;;;9.30;59.50;;;;;;5186766;27;34390;-78
2022/01/04 01:37:28;;;;;;;0.30;0.30;;;9.20;59.40;;;;;;5149475;27;34403;-78
2022/01/04 01:39:54;;;;;;;0.45;0.45;;;9.20;59.40;;;;;;5167398;27;34441;-77
2022/01/04 01:42:20;;;;;;;0.20;0.20;;;9.20;59.60;;;;;;5167389;27;34183;-78
2022/01/04 01:44:47;;;;;;;0.20;0.20;;;9.10;59.50;;;;;;5185761;27;34350;-77
2022/01/04 01:47:13;;;;;;;0.30;0.30;;;9.10;59.50;;;;;;5185859;27;34147;-77
2022/01/04 01:49:39;;;;;;;0.20;0.20;;;9.10;59.60;;;;;;5149717;27;34482;-77
2022/01/04 01:52:06;;;;;;;0.30;0.30;;;9.10;59.50;;;;;;5185607;27;35278;-77
2022/01/04 01:54:32;;;;;;;0.30;0.30;;;9.10;59.60;;;;;;5150400;27;34248;-77
2022/01/04 01:56:58;;;;;;;0.35;0.35;;;9.10;59.50;;;;;;5167525;27;34299;-77
2022/01/04 01:59:24;;;;;;;0.30;0.30;;;9.10;59.50;;;;;;5186076;27;34185;-77
2022/01/04 02:01:51;;;;;;;0.20;0.20;;;9.10;59.40;;;;;;5185713;27;34130;-77
2022/01/04 02:04:17;;;;;;;0.55;0.40;;;9.10;59.40;;;;;;5166660;27;34203;-77
2022/01/04 02:06:43;;;;;;;0.30;0.30;;;9.10;59.30;;;;;;5167002;27;34153;-77
2022/01/04 02:09:09;;;;;;;0.20;0.20;;;9.10;59.30;;;;;;5166698;27;34448;-77
2022/01/04 02:11:36;;;;;;;1.17;0.30;;;9.10;59.30;;;;;;5166633;27;36023;-77
2022/01/04 02:14:03;;;;;;;1.30;0.30;;;9.10;59.20;;;;;;5149543;27;34271;-77
2022/01/04 02:16:30;;;;;;;0.35;0.35;;;9.20;59.20;;;;;;5149586;27;34330;-77
2022/01/04 02:19:01;;;;;;;0.20;0.17;;;9.10;59.20;;;;;;5149817;27;34284;-77
2022/01/04 02:21:27;;;;;;;0.30;0.30;;;9.10;59.20;;;;;;5184789;27;34312;-77
2022/01/04 02:23:53;;;;;;;0.40;0.32;;;9.10;59.30;;;;;;5166585;27;34389;-77
2022/01/04 02:26:19;;;;;;;0.30;0.28;;;9.10;59.20;;;;;;5166559;27;34196;-77
2022/01/04 02:28:47;;;;;;;0.40;0.40;;;9.10;59.20;;;;;;5149478;27;34188;-77
2022/01/04 02:31:13;;;;;;;0.28;0.28;;;9.10;59.20;;;;;;5184344;27;34428;-77
2022/01/04 02:33:39;;;;;;;0.22;0.22;;;9.10;59.20;;;;;;5150230;27;34322;-78
2022/01/04 02:36:05;;;;;;;0.17;0.15;;;9.10;59.20;;;;;;5153033;27;34249;-78
2022/01/04 02:38:33;;;;;;;0.20;0.20;;;9.10;59.70;;;;;;5170119;27;34031;-77
2022/01/04 02:41:00;;;;;;;0.30;0.30;;;9.10;59.20;;;;;;5140867;27;35755;-77
2022/01/04 02:43:26;;;;;;;0.28;0.28;;;9.10;59.20;;;;;;5148925;27;34161;-77
2022/01/04 02:45:52;;;;;;;1.58;0.25;;;9.10;59.20;;;;;;5132064;27;34257;-77
2022/01/04 02:48:18;;;;;;;0.20;0.20;;;9.10;59.20;;;;;;5148579;27;34362;-77
2022/01/04 02:50:44;;;;;;;0.82;0.47;;;9.10;59.20;;;;;;5149230;27;36033;-77
2022/01/04 02:53:10;;;;;;;1.08;0.45;;;9.10;59.20;;;;;;5167213;27;34251;-77
2022/01/04 02:55:36;;;;;;;0.30;0.30;;;9.10;59.20;;;;;;5149204;27;34236;-77
2022/01/04 02:58:02;;;;;;;0.75;0.40;;;9.10;59.20;;;;;;5131774;27;34165;-77
2022/01/04 03:00:29;;;;;;;2.75;0.45;;;9.10;59.20;;;;;;5149101;27;35102;-77
2022/01/04 03:02:55;;;;;;;0.20;0.20;;;9.10;59.20;;;;;;5131670;27;34173;-77
2022/01/04 03:05:21;;;;;;;0.20;0.20;;;9.10;59.20;;;;;;5148690;27;34200;-77
2022/01/04 03:07:47;;;;;;;0.32;0.32;;;9.10;59.30;;;;;;5148538;27;34620;-77
2022/01/04 03:10:14;;;;;;;0.20;0.20;;;9.10;59.20;;;;;;5131174;27;36026;-77
2022/01/04 03:12:42;;;;;;;0.40;0.40;;;9.00;59.10;;;;;;5148711;27;34236;-77
2022/01/04 03:15:10;;;;;;;0.30;0.30;;;9.00;59.10;;;;;;5148899;27;34352;-77
2022/01/04 03:17:36;;;;;;;0.65;0.30;;;9.10;59.20;;;;;;5149119;27;34301;-77
2022/01/04 03:20:04;;;;;;;0.73;0.30;;;9.10;59.20;;;;;;5130813;27;35686;-77
2022/01/04 03:22:30;;;;;;;0.32;0.30;;;9.00;59.10;;;;;;5166775;27;34118;-77
2022/01/04 03:24:56;;;;;;;0.68;0.30;;;9.00;59.20;;;;;;5148340;27;34299;-77
2022/01/04 03:27:22;;;;;;;1.00;0.20;;;9.00;59.20;;;;;;5148544;27;34194;-77
2022/01/04 03:29:48;;;;;;;1.17;0.40;;;9.00;59.10;;;;;;5130557;27;35361;-78
2022/01/04 03:32:14;;;;;;;0.38;0.38;;;9.00;59.10;;;;;;5131031;27;34234;-77
2022/01/04 03:34:40;;;;;;;0.30;0.30;;;9.00;59.10;;;;;;5148324;27;34215;-77
2022/01/04 03:37:06;;;;;;;0.20;0.20;;;9.10;59.20;;;;;;5131265;27;34341;-77
2022/01/04 03:39:32;;;;;;;1.23;0.40;;;9.10;59.20;;;;;;5130870;27;35632;-77
2022/01/04 03:41:59;;;;;;;0.85;0.35;;;9.10;59.30;;;;;;5187413;27;34442;-77
2022/01/04 03:44:26;;;;;;;0.30;0.30;;;9.00;59.20;;;;;;5187451;27;34421;-77
2022/01/04 03:46:55;;;;;;;0.28;0.28;;;9.00;59.10;;;;;;5150698;27;34152;-77
2022/01/04 03:49:26;;;;;;;1.42;0.35;;;9.10;59.20;;;;;;5152561;27;34333;-77
2022/01/04 03:51:52;;;;;;;5.30;0.40;;;9.10;59.20;;;;;;5169482;27;34375;-77
2022/01/04 03:54:19;;;;;;;0.13;0.13;;;9.10;59.30;;;;;;5151539;27;34303;-77
2022/01/04 03:56:46;;;;;;;0.30;0.30;;;9.10;59.20;;;;;;5151814;27;34576;-77
2022/01/04 03:59:12;;;;;;;1.75;0.50;;;9.10;59.20;;;;;;5168077;27;35520;-77
2022/01/04 04:01:38;;;;;;;0.43;0.22;;;9.10;59.20;;;;;;5187533;27;34083;-77
2022/01/04 04:04:04;;;;;;;2.25;0.50;;;9.10;59.20;;;;;;5152232;27;34157;-77
2022/01/04 04:06:30;;;;;;;0.30;0.30;;;9.10;59.10;;;;;;5187699;27;34312;-77
2022/01/04 04:08:57;;;;;;;0.52;0.30;;;9.10;59.20;;;;;;5168749;27;35699;-77
2022/01/04 04:11:24;;;;;;;1.30;0.40;;;9.10;59.20;;;;;;5168297;27;34329;-77
2022/01/04 04:13:50;;;;;;;0.20;0.20;;;9.10;59.10;;;;;;5168640;27;34420;-77
2022/01/04 04:16:16;;;;;;;0.35;0.30;;;9.00;59.70;;;;;;5150961;27;34507;-77
2022/01/04 04:18:43;;;;;;;0.43;0.30;;;9.00;59.10;;;;;;5186675;27;34973;-77
2022/01/04 04:21:09;;;;;;;2.35;0.52;;;9.00;59.10;;;;;;5168032;27;34203;-77
2022/01/04 04:23:35;;;;;;;1.27;0.40;;;9.00;59.00;;;;;;5168394;27;34224;-77
2022/01/04 04:26:01;;;;;;;0.40;0.40;;;9.00;59.00;;;;;;5151521;27;34229;-77
2022/01/04 04:28:27;;;;;;;0.30;0.30;;;9.00;59.10;;;;;;5167948;27;35675;-77
2022/01/04 04:30:53;;;;;;;0.30;0.30;;;9.00;59.10;;;;;;5150944;27;34339;-77
2022/01/04 04:33:19;;;;;;;0.38;0.38;;;9.00;59.10;;;;;;5168251;27;34480;-77
2022/01/04 04:35:45;;;;;;;0.30;0.30;;;9.00;59.10;;;;;;5168455;27;34572;-77
2022/01/04 04:38:11;;;;;;;1.40;0.50;;;9.00;59.10;;;;;;5167857;27;35945;-78
2022/01/04 04:40:37;;;;;;;0.30;0.30;;;9.00;59.10;;;;;;5141301;27;34247;-77
2022/01/04 04:43:03;;;;;;;0.32;0.30;;;9.00;59.10;;;;;;5147146;27;34423;-77
2022/01/04 04:45:29;;;;;;;0.52;0.40;;;9.00;59.10;;;;;;5147481;27;34657;-77
2022/01/04 04:47:56;;;;;;;0.30;0.30;;;9.00;59.20;;;;;;5165461;27;35407;-77
2022/01/04 04:50:22;;;;;;;0.50;0.50;;;9.00;59.20;;;;;;5112572;27;34490;-77
2022/01/04 04:52:48;;;;;;;0.55;0.50;;;9.00;59.10;;;;;;5146998;27;34398;-77
2022/01/04 04:55:14;;;;;;;0.63;0.63;;;8.90;59.20;;;;;;5165622;27;34467;-77
2022/01/04 04:57:41;;;;;;;2.00;0.40;;;8.90;59.30;;;;;;5146610;27;35193;-77
2022/01/04 05:00:08;;;;;;;0.40;0.40;;;8.90;59.30;;;;;;5165248;27;34175;-77
2022/01/04 05:02:35;;;;;;;0.30;0.30;;;8.90;59.30;;;;;;5146843;27;34239;-77
2022/01/04 05:05:02;;;;;;;0.60;0.60;;;8.90;59.30;;;;;;5147209;27;34126;-77
2022/01/04 05:07:28;;;;;;;0.40;0.40;;;8.90;59.20;;;;;;5129519;27;34221;-78
2022/01/04 05:09:54;;;;;;;1.05;0.55;;;8.90;59.20;;;;;;5146812;27;34044;-77
2022/01/04 05:12:20;;;;;;;2.75;0.63;;;8.90;59.20;;;;;;5146477;27;34190;-77
2022/01/04 05:14:47;;;;;;;0.40;0.40;;;8.90;59.20;;;;;;5165315;27;34206;-77
2022/01/04 05:17:14;;;;;;;1.67;0.70;;;8.80;59.20;;;;;;5165787;27;35059;-78
2022/01/04 05:19:40;;;;;;;0.85;0.60;;;8.80;59.30;;;;;;5131026;27;34402;-77
2022/01/04 05:22:07;;;;;;;0.98;0.80;;;8.80;59.30;;;;;;5166786;27;34370;-77
2022/01/04 05:24:34;;;;;;;1.77;0.93;;;8.80;59.20;;;;;;5165327;27;34527;-77
2022/01/04 05:27:00;;;;;;;0.80;0.80;;;8.90;59.30;;;;;;5146265;27;35964;-77
2022/01/04 05:29:26;;;;;;;1.25;0.80;;;8.80;59.20;;;;;;5146413;27;34219;-77
2022/01/04 05:31:52;;;;;;;0.75;0.70;;;8.90;59.30;;;;;;5146228;27;34198;-77
2022/01/04 05:34:19;;;;;;;0.70;0.70;;;8.90;59.20;;;;;;5146694;27;34063;-77
2022/01/04 05:36:45;;;;;;;0.63;0.63;;;8.80;59.10;;;;;;5129013;27;35788;-76
2022/01/04 05:39:11;;;;;;;0.60;0.60;;;8.80;59.10;;;;;;5129191;27;34128;-77
2022/01/04 05:41:37;;;;;;;1.15;0.70;;;8.80;59.20;;;;;;5182297;27;34441;-77
2022/01/04 05:44:03;;;;;;;1.02;0.70;;;8.80;59.20;;;;;;5149886;27;34693;-77
2022/01/04 05:46:29;;;;;;;0.80;0.80;;;8.80;59.20;;;;;;5167415;27;34756;-77
2022/01/04 05:48:55;;;;;;;0.80;0.65;;;8.90;59.40;;;;;;5166965;27;34230;-77
2022/01/04 05:51:21;;;;;;;1.48;0.80;;;8.80;59.20;;;;;;5167727;27;34232;-78
2022/01/04 05:53:47;;;;;;;2.80;0.90;;;8.90;59.30;;;;;;5162651;27;34216;-77
2022/01/04 05:56:13;;;;;;;0.77;0.77;;;8.90;59.30;;;;;;5181842;27;34492;-78
2022/01/04 05:58:39;;;;;;;1.83;0.93;;;8.90;59.30;;;;;;5185916;27;34272;-77
2022/01/04 06:01:05;;;;;;;0.93;0.90;;;8.90;59.30;;;;;;5167300;27;34303;-77
2022/01/04 06:03:31;;;;;;;1.60;0.82;;;8.80;59.20;;;;;;5149537;27;34556;-77
2022/01/04 06:05:59;;;;;;;0.80;0.80;;;8.90;59.30;;;;;;5167015;27;35796;-77
2022/01/04 06:08:32;;;;;;;0.93;0.93;;;8.90;59.30;;;;;;5150386;27;34326;-77
2022/01/04 06:10:59;;;;;;;0.90;0.90;;;8.90;59.30;;;;;;5170060;27;34193;-77
2022/01/04 06:16:07;;;;;;;1.05;0.90;;;8.90;59.30;;;;;;5189398;27;34222;-77
2022/01/04 06:18:33;;;;;;;0.95;0.82;;;8.90;59.30;;;;;;5153351;27;34087;-77
2022/01/04 06:20:59;;;;;;;1.60;1.02;;;8.90;59.30;;;;;;5170439;27;34081;-77
2022/01/04 06:23:25;;;;;;;1.25;0.88;;;8.90;59.20;;;;;;5171768;27;34033;-77
2022/01/04 06:25:53;;;;;;;1.10;1.00;;;8.90;59.20;;;;;;5171722;27;35543;-77
2022/01/04 06:28:20;;;;;;;1.10;1.00;;;8.90;59.20;;;;;;5171662;27;34533;-77
2022/01/04 06:30:50;;;;;;;0.80;0.80;;;8.90;59.20;;;;;;5152683;27;34290;-77
2022/01/04 06:33:19;;;;;;;1.45;1.20;;;8.90;59.30;;;;;;5161121;27;34211;-77
2022/01/04 06:35:48;;;;;;;1.23;1.13;;;8.90;59.20;;;;;;5169870;27;35784;-77
2022/01/04 06:38:14;;;;;;;1.02;1.02;;;8.90;59.20;;;;;;5152107;27;34196;-77
2022/01/04 06:40:40;;;;;;;2.33;1.05;;;8.90;59.30;;;;;;5160264;27;34269;-77
2022/01/04 06:43:06;;;;;;;1.15;1.10;;;8.90;59.30;;;;;;5149372;27;34190;-77
2022/01/04 06:45:33;;;;;;;0.80;0.68;;;8.90;59.30;;;;;;5148822;27;36664;-77
2022/01/04 06:47:59;;;;;;;1.27;1.13;;;8.90;59.30;;;;;;5131508;27;34323;-77
2022/01/04 06:50:25;;;;;;;1.75;1.42;;;8.80;59.20;;;;;;5149237;27;34192;-77
2022/01/04 06:52:51;;;;;;;1.20;1.10;;;8.90;59.30;;;;;;5168342;27;34354;-77
2022/01/04 06:55:17;;;;;;;1.52;1.00;;;8.80;59.20;;;;;;5148319;27;35978;-77
2022/01/04 06:57:44;;;;;;;1.10;1.00;;;8.90;59.30;;;;;;5131554;27;34240;-77
2022/01/04 07:00:11;;;;;;;1.90;0.77;;;8.80;59.20;;;;;;5149107;27;34201;-77
2022/01/04 07:02:37;;;;;;;1.13;1.02;;;8.90;59.30;;;;;;5149085;27;34493;-77
2022/01/04 07:05:03;;;;;;;1.15;1.10;;;8.90;59.20;;;;;;5148300;27;36417;-77
2022/01/04 07:07:29;;;;;;;3.15;1.00;;;8.80;59.20;;;;;;5131068;27;34402;-77
2022/01/04 07:09:55;;;;;;;2.17;1.13;;;8.80;59.20;;;;;;5149396;27;34314;-77
2022/01/04 07:12:21;;;;;;;1.50;1.40;;;8.80;59.30;;;;;;5167207;27;34324;-77
2022/01/04 07:14:47;;;;;;;1.45;1.30;;;8.80;59.20;;;;;;5148324;27;35594;-77
2022/01/04 07:17:14;;;;;;;1.70;1.23;;;8.80;59.30;;;;;;5167114;27;34017;-77
2022/01/04 07:19:40;;;;;;;1.90;1.10;;;8.80;59.30;;;;;;5167001;27;34145;-77
2022/01/04 07:22:06;;;;;;;1.58;1.10;;;8.80;59.30;;;;;;5148634;27;34328;-77
2022/01/04 07:24:32;;;;;;;1.50;1.20;;;8.80;59.30;;;;;;5113794;27;35585;-77
2022/01/04 07:26:58;;;;;;;1.38;1.27;;;8.80;59.20;;;;;;5114459;27;34222;-77
2022/01/04 07:29:24;;;;;;;1.75;1.27;;;8.80;59.20;;;;;;5131933;27;34230;-77
2022/01/04 07:31:50;;;;;;;1.40;1.30;;;8.80;59.30;;;;;;5150007;27;34532;-77
2022/01/04 07:34:16;;;;;;;2.00;1.27;;;8.80;59.30;;;;;;5132285;27;35774;-77
2022/01/04 07:36:42;;;;;;;1.73;1.60;;;8.80;59.20;;;;;;5149222;27;34454;-77
2022/01/04 07:39:09;;;;;;;1.88;1.40;;;8.80;59.30;;;;;;5166631;27;34304;-77
2022/01/04 07:41:35;;;;;;;3.78;3.13;;;8.80;59.30;;;;;;5165243;27;34063;-77
2022/01/04 07:44:01;;;;;;;4.63;3.15;;;8.80;59.30;;;;;;5168910;27;35814;-77
2022/01/04 07:46:27;;;;;;;2.75;2.42;;;8.80;59.30;;;;;;5187070;27;34206;-77
2022/01/04 07:48:53;;;;;;;2.67;2.40;;;8.80;59.30;;;;;;5169977;27;34212;-77
2022/01/04 07:51:19;;;;;;;2.25;2.00;;;8.80;59.30;;;;;;5170044;27;34246;-77
2022/01/04 07:53:45;;;;;;;2.38;2.15;;;8.80;59.20;;;;;;5138946;27;36587;-77
2022/01/04 07:56:12;;;;;;;2.13;1.77;;;8.80;59.30;;;;;;5165453;27;34192;-77
2022/01/04 07:58:38;;;;;;;1.92;1.60;;;8.80;59.30;;;;;;5170136;27;34074;-77
2022/01/04 08:01:04;;;;;;;1.75;1.60;;;8.80;59.30;;;;;;5169852;27;34430;-77
2022/01/04 08:03:30;;;;;;;2.35;1.65;;;8.80;59.30;;;;;;5152720;27;35755;-77
2022/01/04 08:05:56;;;;;;;1.70;1.60;;;8.90;59.30;;;;;;5135704;27;34186;-77
2022/01/04 08:08:23;;;;;;;1.73;1.63;;;8.80;59.20;;;;;;5169924;27;34179;-77
2022/01/04 08:10:51;;;;;;;1.95;1.75;;;8.80;59.20;;;;;;5188896;27;34348;-77
2022/01/04 08:13:17;;;;;;;1.58;1.48;;;8.80;59.30;;;;;;5169056;27;36052;-77
2022/01/04 08:15:43;;;;;;;2.22;1.85;;;8.90;59.40;;;;;;5188697;27;34325;-77
2022/01/04 08:18:09;;;;;;;1.70;1.60;;;8.90;59.40;;;;;;5169384;27;34493;-77
2022/01/04 08:20:35;;;;;;;2.25;1.90;;;8.80;59.30;;;;;;5165170;27;34168;-77
2022/01/04 08:23:02;;;;;;;2.10;1.85;;;8.90;59.40;;;;;;5163260;27;35821;-77
2022/01/04 08:25:29;;;;;;;1.80;1.70;;;8.90;59.40;;;;;;5187022;27;34183;-77
2022/01/04 08:27:55;;;;;;;1.73;1.58;;;8.90;59.40;;;;;;5152023;27;34166;-77
2022/01/04 08:30:21;;;;;;;2.20;2.00;;;8.90;59.30;;;;;;5168441;27;34102;-77
2022/01/04 08:32:47;;;;;;;2.42;2.00;;;8.90;59.30;;;;;;5167193;27;35517;-77
2022/01/04 08:35:13;;;;;;;2.20;2.00;;;8.90;59.30;;;;;;5167684;27;34321;-77
2022/01/04 08:37:40;;;;;;;3.35;2.25;;;8.90;59.20;;;;;;5167487;27;34129;-77
2022/01/04 08:40:07;;;;;;;2.65;2.45;;;8.90;59.30;;;;;;5169183;27;34366;-77
2022/01/04 08:42:35;;;;;;;2.58;1.80;;;8.90;59.30;;;;;;5169080;27;35733;-77
2022/01/04 08:45:02;;;;;;;2.00;1.90;;;8.90;59.30;;;;;;5151412;27;34376;-77
2022/01/04 08:47:29;;;;;;;2.40;1.90;;;8.90;59.30;;;;;;5186597;27;34495;-77
2022/01/04 08:49:55;;;;;;;1.90;1.63;;;8.90;59.30;;;;;;5164427;27;34528;-77
2022/01/04 08:52:22;;;;;;;2.22;1.58;;;8.90;59.30;;;;;;5132646;27;35522;-78
2022/01/04 08:54:48;;;;;;;1.27;1.17;;;8.90;59.30;;;;;;5186417;27;34299;-77
2022/01/04 08:57:15;;;;;;;1.42;1.10;;;8.90;59.30;;;;;;5168814;27;34227;-77
2022/01/04 08:59:41;;;;;;;1.35;1.00;;;8.90;59.30;;;;;;5164503;27;34139;-77
2022/01/04 09:02:07;;;;;;;1.83;1.42;;;8.90;59.20;;;;;;5165411;27;34462;-77
2022/01/04 09:04:33;;;;;;;2.00;1.40;;;8.90;59.20;;;;;;5150849;27;34272;-77
2022/01/04 09:07:00;;;;;;;2.42;1.40;;;9.00;59.20;;;;;;5150029;27;34294;-77
2022/01/04 09:09:26;;;;;;;1.80;1.10;;;9.00;59.30;;;;;;5168006;27;34173;-77
2022/01/04 09:11:53;;;;;;;1.60;1.10;;;9.00;59.30;;;;;;5167955;27;36508;-77
2022/01/04 09:14:25;;;;;;;2.97;1.38;;;9.00;59.30;;;;;;5150646;27;34219;-77
2022/01/04 09:19:33;;;;;;;1.98;1.30;;;9.00;59.30;;;;;;5186170;27;34222;-77
2022/01/04 09:21:59;;;;;;;1.20;1.10;;;9.00;59.20;;;;;;5167788;27;34802;-77
2022/01/04 09:24:25;;;;;;;1.40;1.17;;;9.10;59.30;;;;;;5167610;27;34240;-77
2022/01/04 09:26:52;;;;;;;1.55;1.10;;;9.10;59.20;;;;;;5167391;27;34306;-77
2022/01/04 09:29:20;;;;;;;0.90;0.90;;;9.10;59.20;;;;;;5166889;27;34602;-77
2022/01/04 09:31:48;;;;;;;1.42;1.08;;;9.10;59.20;;;;;;5150145;27;36743;-77
2022/01/04 09:34:14;;;;;;;0.90;0.90;;;9.10;59.20;;;;;;5167958;27;34325;-77
2022/01/04 09:36:40;;;;;;;1.38;0.88;;;9.10;59.20;;;;;;5186436;27;34290;-77
2022/01/04 09:39:14;;;;;;;0.77;0.77;;;9.10;59.10;;;;;;5167860;27;34415;-77
2022/01/04 09:41:42;;;;;;;1.02;0.93;;;9.10;59.10;;;;;;5167249;27;36399;-77
2022/01/04 09:44:08;;;;;;;0.82;0.80;;;9.10;59.10;;;;;;5169753;27;34277;-77
2022/01/04 09:46:34;;;;;;;0.50;0.50;;;9.10;59.10;;;;;;5170656;27;34216;-77
2022/01/04 09:49:00;;;;;;;1.20;0.60;;;9.10;59.00;;;;;;5171155;27;34306;-77
2022/01/04 09:51:28;;;;;;;0.52;0.52;;;9.10;59.00;;;;;;5154026;27;34344;-78
2022/01/04 09:53:54;;;;;;;1.30;0.60;;;9.10;58.90;;;;;;5152816;27;34221;-77
2022/01/04 09:56:20;;;;;;;0.50;0.50;;;9.20;58.90;;;;;;5170889;27;34298;-77
2022/01/04 09:58:46;;;;;;;0.70;0.70;;;9.20;59.00;;;;;;5189419;27;34157;-77
2022/01/04 10:01:25;;;;;;;1.48;0.52;;;9.20;59.00;;;;;;5188984;27;34894;-77
2022/01/04 10:03:51;;;;;;;0.57;0.52;;;9.20;58.90;;;;;;5153685;27;34245;-77
2022/01/04 10:06:18;;;;;;;0.47;0.47;;;9.20;59.00;;;;;;5170579;27;34114;-77
2022/01/04 10:08:56;;;;;;;0.40;0.40;;;9.30;59.00;;;;;;5153684;27;34039;-77
2022/01/04 10:11:39;;;;;;;0.35;0.35;;;9.30;58.90;;;;;;5170140;27;36459;-77
2022/01/04 10:14:26;;;;;;;0.50;0.50;;;9.30;58.70;;;;;;5170630;27;34197;-76
2022/01/04 10:16:55;;;;;;;1.48;0.73;;;9.30;58.60;;;;;;5170207;27;34140;-77
2022/01/04 10:19:31;;;;;;;1.25;0.63;;;9.30;58.60;;;;;;5153268;27;34145;-76
2022/01/04 10:22:14;;;;;;;1.08;0.80;;;9.30;58.40;;;;;;5170725;27;35556;-77
2022/01/04 10:24:41;;;;;;;1.85;0.77;;;9.30;58.40;;;;;;5170684;27;34543;-77
2022/01/04 10:27:24;;;;;;;0.75;0.70;;;9.20;58.40;;;;;;5152811;27;34421;-77
2022/01/04 10:30:25;;;;;;;0.68;0.60;;;9.20;58.20;;;;;;5189312;27;34459;-77
2022/01/04 10:33:05;;;;;;;0.68;0.68;;;9.20;58.30;;;;;;5170282;27;36701;-77
2022/01/04 10:35:37;;;;;;;0.85;0.68;;;9.20;58.40;;;;;;5170182;27;34114;-77
2022/01/04 10:38:21;;;;;;;0.70;0.70;;;9.20;58.60;;;;;;5171190;27;34171;-77
2022/01/04 10:40:56;;;;;;;1.67;0.70;;;9.20;58.10;;;;;;5171761;27;34125;-77
2022/01/04 10:43:25;;;;;;;3.80;0.50;;;9.10;58.30;;;;;;5171088;27;35039;-77
2022/01/04 10:45:52;;;;;;;0.52;0.52;;;9.10;58.20;;;;;;5189107;27;34284;-77
2022/01/04 10:48:20;;;;;;;1.23;0.70;;;9.10;58.20;;;;;;5169463;27;34171;-77
2022/01/04 10:50:50;;;;;;;0.50;0.50;;;9.10;58.40;;;;;;5153411;27;34434;-77
2022/01/04 10:53:21;;;;;;;1.23;0.60;;;9.00;58.20;;;;;;5152822;27;35912;-77
2022/01/04 10:55:50;;;;;;;1.73;0.47;;;9.00;58.30;;;;;;5152353;27;34277;-77
2022/01/04 10:58:23;;;;;;;0.38;0.38;;;9.00;58.20;;;;;;5169926;27;34349;-77
2022/01/04 11:00:52;;;;;;;0.80;0.47;;;9.00;58.30;;;;;;5153250;27;34263;-77
2022/01/04 11:03:28;;;;;;;0.20;0.20;;;9.00;58.30;;;;;;5143624;27;35909;-77
2022/01/04 11:06:00;;;;;;;0.68;0.40;;;8.90;58.30;;;;;;5170784;27;34091;-77
2022/01/04 11:08:28;;;;;;;2.90;0.60;;;8.90;58.40;;;;;;5189715;27;34159;-77
2022/01/04 11:10:55;;;;;;;1.13;0.75;;;8.90;58.30;;;;;;5189354;27;34405;-77
2022/01/04 11:13:22;;;;;;;0.70;0.68;;;8.90;58.40;;;;;;5170419;27;35959;-77
2022/01/04 11:15:49;;;;;;;1.25;0.50;;;8.90;58.40;;;;;;5170413;27;34088;-77
2022/01/04 11:18:15;;;;;;;3.20;0.68;;;8.90;58.40;;;;;;5170291;27;34189;-77
2022/01/04 11:20:41;;;;;;;0.70;0.70;;;8.90;59.10;;;;;;5170318;27;34114;-77
2022/01/04 11:23:09;;;;;;;0.52;0.52;;;8.90;58.30;;;;;;5169801;27;35610;-77
2022/01/04 11:25:36;;;;;;;1.98;0.85;;;8.90;58.30;;;;;;5169705;27;34258;-77
2022/01/04 11:28:03;;;;;;;0.60;0.52;;;8.90;58.30;;;;;;5169174;27;34177;-77
2022/01/04 11:30:56;;;;;;;0.68;0.50;;;8.90;58.20;;;;;;5151789;27;34109;-77
2022/01/04 11:33:32;;;;;;;0.40;0.40;;;8.90;58.20;;;;;;5155020;27;36400;-77
2022/01/04 11:36:00;;;;;;;1.08;0.77;;;8.90;58.10;;;;;;5212004;27;34019;-77
2022/01/04 11:38:35;;;;;;;0.40;0.40;;;8.80;58.00;;;;;;5210395;27;34057;-77
2022/01/04 11:41:02;;;;;;;0.95;0.40;;;8.90;58.10;;;;;;5191296;27;34349;-76
2022/01/04 11:43:34;;;;;;;0.30;0.30;;;8.80;58.00;;;;;;5190399;27;36564;-77
2022/01/04 11:46:01;;;;;;;0.45;0.40;;;8.90;58.20;;;;;;5191729;27;34327;-77
2022/01/04 11:48:35;;;;;;;0.73;0.50;;;8.90;58.20;;;;;;5190384;27;34450;-77
2022/01/04 11:51:04;;;;;;;0.50;0.50;;;8.90;58.20;;;;;;5209450;27;34302;-77
2022/01/04 11:53:32;;;;;;;0.40;0.40;;;8.90;58.10;;;;;;5171869;27;35705;-77
2022/01/04 11:56:05;;;;;;;0.40;0.40;;;8.90;58.10;;;;;;5209029;27;34174;-77
2022/01/04 11:58:52;;;;;;;0.30;0.30;;;8.90;58.00;;;;;;5173111;27;34273;-77
2022/01/04 12:01:27;;;;;;;1.02;0.50;;;8.90;57.90;;;;;;5190495;27;34083;-77
2022/01/04 12:03:54;;;;;;;0.93;0.60;;;8.90;58.00;;;;;;5189838;27;35593;-77
2022/01/04 12:06:34;;;;;;;0.50;0.43;;;8.90;58.10;;;;;;5206173;27;34213;-77
2022/01/04 12:09:01;;;;;;;0.55;0.50;;;8.90;58.10;;;;;;5189450;27;34198;-77
2022/01/04 12:11:43;;;;;;;0.50;0.50;;;8.90;57.80;;;;;;5172680;27;34319;-77
2022/01/04 12:14:27;;;;;;;0.30;0.30;;;8.90;57.80;;;;;;5224872;27;36524;-77
2022/01/04 12:17:04;;;;;;;0.52;0.52;;;8.90;58.00;;;;;;5189988;27;34132;-77
2022/01/04 12:19:47;;;;;;;0.57;0.57;;;8.90;57.90;;;;;;5188942;27;34340;-77
2022/01/04 12:22:28;;;;;;;0.75;0.60;;;8.90;58.00;;;;;;5189456;27;34401;-77
2022/01/04 12:25:02;;;;;;;0.52;0.52;;;8.90;58.10;;;;;;5196832;27;34343;-77
2022/01/04 12:27:28;;;;;;;0.60;0.60;;;8.90;58.10;;;;;;5189597;27;34119;-77
2022/01/04 12:30:23;;;;;;;0.60;0.60;;;8.90;58.20;;;;;;5224976;27;34096;-77
2022/01/04 12:32:50;;;;;;;0.60;0.57;;;8.90;58.20;;;;;;5175679;27;34279;-77
2022/01/04 12:35:16;;;;;;;0.50;0.50;;;9.00;58.20;;;;;;5189156;27;35954;-77
2022/01/04 12:37:43;;;;;;;0.70;0.70;;;9.00;58.10;;;;;;5208008;27;34442;-77
2022/01/04 12:40:09;;;;;;;2.60;0.75;;;9.00;58.20;;;;;;5180747;27;34120;-77
2022/01/04 12:42:39;;;;;;;0.90;0.60;;;9.00;58.20;;;;;;5150186;27;34491;-77
2022/01/04 12:45:06;;;;;;;1.38;0.60;;;9.00;58.10;;;;;;5080860;28;34214;-77
2022/01/04 12:47:32;;;;;;;0.88;0.60;;;9.10;58.10;;;;;;5133141;27;34333;-77
2022/01/04 12:50:00;;;;;;;0.50;0.47;;;9.10;58.20;;;;;;5081356;28;34247;-77
2022/01/04 12:52:27;;;;;;;0.60;0.52;;;9.10;58.10;;;;;;5142993;27;34463;-77
2022/01/04 12:54:53;;;;;;;0.50;0.50;;;9.10;58.20;;;;;;5165905;27;34211;-77
2022/01/04 12:57:22;;;;;;;0.65;0.60;;;9.10;58.10;;;;;;5147224;27;34349;-77
2022/01/04 12:59:52;;;;;;;0.52;0.50;;;9.20;58.20;;;;;;5146866;27;34335;-77
2022/01/04 13:02:23;;;;;;;0.60;0.60;;;9.20;58.20;;;;;;5129777;27;34257;-77
2022/01/04 13:04:52;;;;;;;1.90;0.80;;;9.30;58.10;;;;;;5164879;27;34512;-77
2022/01/04 13:07:22;;;;;;;0.60;0.60;;;9.30;58.10;;;;;;5147770;27;34067;-77
2022/01/04 13:09:50;;;;;;;0.85;0.80;;;9.30;58.00;;;;;;5165504;27;34467;-77
2022/01/04 13:12:19;;;;;;;0.80;0.75;;;9.30;58.00;;;;;;5146934;27;34083;-77